To NAV CANADA Home Page Login to a new session Search on AWWS site Feedback and Comments Disclaimer Vers la page française équivalente Tips FAQ What's new on the site To the Forecasts and Observations / NOTAM section To "File a Flight Plan" website Publications and other links Update of the User's profile FIC Telephone Numbers My Weather Data Folder Route Weather Data Regional Weather Data Local Weather Data To the Forecasts and Observations / NOTAM section
Request Generated 05/07/2015 at 02:34:59 UTC . Weather information available at that time is displayed.

METAR/TAF

SARNIA/SARNIA (CHRIS HADFIELD)/ON    (show WxCam)

METAR CYZR 070200Z AUTO VRB08KT 6SM BR CLR 08/06 A3020 RMK SLP229=
METAR CYZR 070100Z AUTO 33005KT 6SM HZ CLR 09/07 A3017 RMK SLP220=
METAR CYZR 070000Z AUTO 01006KT 8SM CLR 13/09 A3017 RMK SLP218=

*** REMARK        : Forecast period has ended; this was the last TAF issued
*** REMARQUE : La période de prévision est échue; ceci était le dernier TAF qui a été émis
TAF CYZR 061941Z 0620/0702 01008KT P6SM FEW040 TEMPO 0620/0623 BKN040
FM062300 VRB03KT P6SM SCT050
RMK FCST BASED ON AUTO OBS. NXT FCST WILL BE ISSUED AT 071145Z=
Your time UTC time
Weather data provided by Environment Canada and NAV CANADA